createdAt,value
2018-09-17T00:01:32.154Z,12.63
2018-09-17T00:04:04.171Z,12.60
2018-09-17T00:06:36.297Z,12.50
2018-09-17T00:09:09.673Z,12.43
2018-09-17T00:11:41.719Z,12.34
2018-09-17T00:14:13.757Z,12.20
2018-09-17T00:16:45.788Z,12.12
2018-09-17T00:19:17.834Z,12.05
2018-09-17T00:21:49.831Z,11.99
2018-09-17T00:24:21.876Z,12.05
2018-09-17T00:26:53.874Z,12.08
2018-09-17T00:29:25.926Z,12.23
2018-09-17T00:31:57.915Z,12.10
2018-09-17T00:34:29.963Z,12.09
2018-09-17T00:37:02.058Z,12.12
2018-09-17T00:39:34.163Z,12.07
2018-09-17T00:42:06.228Z,11.92
2018-09-17T00:44:38.289Z,11.81
2018-09-17T00:47:10.282Z,11.67
2018-09-17T00:49:42.314Z,11.71
2018-09-17T00:52:14.347Z,11.72
2018-09-17T00:54:46.374Z,11.64
2018-09-17T00:57:18.435Z,11.52
2018-09-17T00:59:50.543Z,11.47
2018-09-17T01:02:22.610Z,11.49
2018-09-17T01:04:54.695Z,11.58
2018-09-17T01:07:26.740Z,11.72
2018-09-17T01:09:58.780Z,11.65
2018-09-17T01:12:30.805Z,11.62
2018-09-17T01:15:02.867Z,11.67
2018-09-17T01:17:34.862Z,11.57
2018-09-17T01:20:07.051Z,11.43
2018-09-17T01:22:39.071Z,11.28
2018-09-17T01:25:11.091Z,11.36
2018-09-17T01:27:43.120Z,11.26
2018-09-17T01:30:15.147Z,11.26
2018-09-17T01:32:47.188Z,11.28
2018-09-17T01:35:19.227Z,11.28
2018-09-17T01:37:51.260Z,11.18
2018-09-17T01:40:23.299Z,11.23
2018-09-17T01:42:55.287Z,11.14
2018-09-17T01:45:27.311Z,11.03
2018-09-17T01:47:59.338Z,10.98
2018-09-17T01:50:31.331Z,10.96
2018-09-17T01:53:03.353Z,10.93
2018-09-17T01:55:35.409Z,10.89
2018-09-17T01:58:07.442Z,10.89
2018-09-17T02:00:39.513Z,10.83
2018-09-17T02:03:11.520Z,10.80
2018-09-17T02:05:43.588Z,10.89
2018-09-17T02:08:15.650Z,11.00
2018-09-17T02:10:47.749Z,10.99
2018-09-17T02:13:19.783Z,10.90
2018-09-17T02:15:51.834Z,10.81
2018-09-17T02:18:23.870Z,10.78
2018-09-17T02:20:55.906Z,10.80
2018-09-17T02:23:27.912Z,10.79
2018-09-17T02:25:59.960Z,10.77
2018-09-17T02:28:31.979Z,10.81
2018-09-17T02:31:04.039Z,10.87
2018-09-17T02:33:36.031Z,10.94
2018-09-17T02:36:08.034Z,10.89
2018-09-17T02:38:40.026Z,10.79
2018-09-17T02:41:12.051Z,10.78
2018-09-17T02:43:44.103Z,10.80
2018-09-17T02:46:16.279Z,10.74
2018-09-17T02:48:48.397Z,10.78
2018-09-17T02:51:20.438Z,10.71
2018-09-17T02:53:52.467Z,10.58
2018-09-17T02:56:24.528Z,10.51
2018-09-17T02:58:56.561Z,10.44
2018-09-17T03:01:28.587Z,10.50
2018-09-17T03:04:00.611Z,10.52
2018-09-17T03:06:32.704Z,10.65
2018-09-17T03:09:06.863Z,10.65
2018-09-17T03:11:38.867Z,10.61
2018-09-17T03:14:10.870Z,10.66
2018-09-17T03:16:54.660Z,10.59
2018-09-17T03:19:26.663Z,10.46
2018-09-17T03:21:58.687Z,10.38
2018-09-17T03:24:30.769Z,10.47
2018-09-17T03:27:02.738Z,10.42
2018-09-17T03:29:34.739Z,10.38
2018-09-17T03:32:06.758Z,10.43
2018-09-17T03:34:38.827Z,10.40
2018-09-17T03:37:10.918Z,10.37
2018-09-17T03:39:42.931Z,10.26
2018-09-17T03:42:14.975Z,10.24
2018-09-17T03:44:46.974Z,10.21
2018-09-17T03:47:18.999Z,10.20
2018-09-17T03:49:51.002Z,10.23
2018-09-17T03:52:23.407Z,10.34
2018-09-17T03:54:55.477Z,10.30
2018-09-17T03:57:27.538Z,10.22
2018-09-17T03:59:59.610Z,10.11
2018-09-17T04:02:31.648Z,10.04
2018-09-17T04:05:03.759Z,10.21
2018-09-17T04:07:35.804Z,10.14
2018-09-17T04:10:07.799Z,10.12
2018-09-17T04:12:39.826Z,10.07
2018-09-17T04:15:11.872Z,10.09
2018-09-17T04:17:43.924Z,10.06
2018-09-17T04:20:15.951Z,10.06
2018-09-17T04:22:47.943Z,10.14
2018-09-17T04:25:19.955Z,10.08
2018-09-17T04:27:51.990Z,10.10
2018-09-17T04:30:24.052Z,10.17
2018-09-17T04:32:56.533Z,10.23
2018-09-17T04:35:28.576Z,10.17
2018-09-17T04:38:00.643Z,10.16
2018-09-17T04:40:32.635Z,10.22
2018-09-17T04:43:04.723Z,10.08
2018-09-17T04:45:36.738Z,10.11
2018-09-17T04:48:08.864Z,10.15
2018-09-17T04:50:40.886Z,10.16
2018-09-17T04:53:12.927Z,10.10
2018-09-17T04:55:44.954Z,10.04
2018-09-17T04:58:17.021Z,10.04
2018-09-17T05:00:49.255Z,9.99
2018-09-17T05:03:21.295Z,9.98
2018-09-17T05:05:53.365Z,10.04
2018-09-17T05:08:25.395Z,10.02
2018-09-17T05:10:57.397Z,10.01
2018-09-17T05:13:29.563Z,10.15
2018-09-17T05:16:01.729Z,10.18
2018-09-17T05:18:33.779Z,10.32
2018-09-17T05:21:05.795Z,10.30
2018-09-17T05:23:37.817Z,10.41
2018-09-17T05:26:09.852Z,10.48
2018-09-17T05:28:41.906Z,10.60
2018-09-17T05:31:13.964Z,10.69
2018-09-17T05:33:46.030Z,10.74
2018-09-17T05:36:18.097Z,10.82
2018-09-17T05:38:50.218Z,10.89
2018-09-17T05:41:22.318Z,11.06
2018-09-17T05:43:54.477Z,11.18
2018-09-17T05:46:26.681Z,11.34
2018-09-17T05:48:58.884Z,11.45
2018-09-17T05:51:30.935Z,11.60
2018-09-17T05:54:03.083Z,11.71
2018-09-17T05:56:35.167Z,11.78
2018-09-17T05:59:07.267Z,11.86
2018-09-17T06:01:39.312Z,11.92
2018-09-17T06:04:11.521Z,12.01
2018-09-17T06:06:43.564Z,12.16
2018-09-17T06:09:15.647Z,12.27
2018-09-17T06:11:47.797Z,12.44
2018-09-17T06:14:19.811Z,12.60
2018-09-17T06:16:51.979Z,12.83
2018-09-17T06:19:24.089Z,12.92
2018-09-17T06:21:56.309Z,12.98
2018-09-17T06:24:28.433Z,13.15
2018-09-17T06:27:00.606Z,13.30
2018-09-17T06:29:32.695Z,13.47
2018-09-17T06:32:04.745Z,13.65
2018-09-17T06:34:36.839Z,13.75
2018-09-17T06:37:08.889Z,13.88
2018-09-17T06:39:40.961Z,14.00
2018-09-17T06:42:13.068Z,14.10
2018-09-17T06:44:45.158Z,14.34
2018-09-17T06:47:17.223Z,14.57
2018-09-17T06:49:49.626Z,14.78
2018-09-17T06:52:21.665Z,15.57
2018-09-17T06:54:53.671Z,16.86
2018-09-17T06:57:25.691Z,18.41
2018-09-17T06:59:57.727Z,19.75
2018-09-17T07:02:29.784Z,21.12
2018-09-17T07:05:01.904Z,21.08
2018-09-17T07:07:33.938Z,20.97
2018-09-17T07:10:06.642Z,21.23
2018-09-17T07:12:38.680Z,22.10
2018-09-17T07:15:11.654Z,22.31
2018-09-17T07:17:43.724Z,22.94
2018-09-17T07:20:15.822Z,23.00
2018-09-17T07:22:47.879Z,22.58
2018-09-17T07:25:20.023Z,22.49
2018-09-17T07:27:52.126Z,22.26
2018-09-17T07:30:24.189Z,22.47
2018-09-17T07:32:56.256Z,22.94
2018-09-17T07:35:28.355Z,23.93
2018-09-17T07:38:00.488Z,23.37
2018-09-17T07:40:32.581Z,23.06
2018-09-17T07:43:04.961Z,22.69
2018-09-17T07:45:37.025Z,23.11
2018-09-17T07:48:09.124Z,23.70
2018-09-17T07:50:41.236Z,24.22
2018-09-17T07:53:13.428Z,24.90
2018-09-17T07:55:45.466Z,25.25
2018-09-17T07:58:17.524Z,24.35
2018-09-17T08:00:49.648Z,25.12
2018-09-17T08:03:21.754Z,25.31
2018-09-17T08:05:53.820Z,25.17
2018-09-17T08:08:25.982Z,24.18
2018-09-17T08:10:58.058Z,23.52
2018-09-17T08:13:30.077Z,23.65
2018-09-17T08:16:02.176Z,22.79
2018-09-17T08:18:34.233Z,23.41
2018-09-17T08:21:06.316Z,23.49
2018-09-17T08:23:38.437Z,22.93
2018-09-17T08:26:10.590Z,22.99
2018-09-17T08:28:42.670Z,23.57
2018-09-17T08:31:14.783Z,22.93
2018-09-17T08:33:46.867Z,23.07
2018-09-17T08:36:18.972Z,23.86
2018-09-17T08:38:51.078Z,24.05
2018-09-17T08:41:23.207Z,23.60
2018-09-17T08:43:55.431Z,23.77
2018-09-17T08:46:27.634Z,24.34
2018-09-17T08:48:59.701Z,24.03
2018-09-17T08:51:31.813Z,23.83
2018-09-17T08:54:03.912Z,24.23
2018-09-17T08:56:41.678Z,24.58
2018-09-17T08:59:19.390Z,24.80
2018-09-17T09:01:57.169Z,25.05
2018-09-17T09:04:34.871Z,25.56
2018-09-17T09:07:11.580Z,25.74
2018-09-17T09:09:43.703Z,25.70
2018-09-17T09:12:17.791Z,25.84
2018-09-17T09:14:54.719Z,25.80
2018-09-17T09:17:26.776Z,25.94
2018-09-17T09:19:58.903Z,26.23
2018-09-17T09:22:31.055Z,26.86
2018-09-17T09:25:03.206Z,26.63
2018-09-17T09:27:35.283Z,26.20
2018-09-17T09:30:07.400Z,25.86
2018-09-17T09:32:39.526Z,25.91
2018-09-17T09:35:11.589Z,25.73
2018-09-17T09:37:43.675Z,25.88
2018-09-17T09:40:15.736Z,25.61
2018-09-17T09:42:47.875Z,25.78
2018-09-17T09:45:19.976Z,24.55
2018-09-17T09:47:52.013Z,25.08
2018-09-17T09:50:24.095Z,25.71
2018-09-17T09:52:56.136Z,25.93
2018-09-17T09:55:28.237Z,26.10
2018-09-17T09:58:00.363Z,26.07
2018-09-17T10:00:38.168Z,25.93
2018-09-17T10:03:15.980Z,26.64
2018-09-17T10:05:48.035Z,27.03
2018-09-17T10:08:20.128Z,27.70
2018-09-17T10:10:57.897Z,26.37
2018-09-17T10:13:35.544Z,25.18
2018-09-17T10:16:13.243Z,25.66
2018-09-17T10:18:51.127Z,26.35
2018-09-17T10:21:23.624Z,26.68
2018-09-17T10:23:55.792Z,27.42
2018-09-17T10:26:27.894Z,26.99
2018-09-17T10:28:59.960Z,27.11
2018-09-17T10:31:31.996Z,27.36
2018-09-17T10:34:04.067Z,26.74
2018-09-17T10:36:36.125Z,27.47
2018-09-17T10:39:10.400Z,27.19
2018-09-17T10:41:42.484Z,27.13
2018-09-17T10:44:14.579Z,28.11
2018-09-17T10:46:46.690Z,28.23
2018-09-17T10:49:18.763Z,28.56
2018-09-17T10:51:50.868Z,27.80
2018-09-17T10:54:22.969Z,27.05
2018-09-17T10:56:55.059Z,27.14
2018-09-17T10:59:27.143Z,26.75
2018-09-17T11:01:59.175Z,27.68
2018-09-17T11:04:31.289Z,27.67
2018-09-17T11:07:03.367Z,27.41
2018-09-17T11:09:35.418Z,27.61
2018-09-17T11:12:07.511Z,27.91
2018-09-17T11:14:39.598Z,28.16
2018-09-17T11:17:11.777Z,27.88
2018-09-17T11:19:43.868Z,28.13
2018-09-17T11:22:15.977Z,28.45
2018-09-17T11:24:48.039Z,28.56
2018-09-17T11:27:20.123Z,28.83
2018-09-17T11:29:52.212Z,29.31
2018-09-17T11:32:24.254Z,29.40
2018-09-17T11:34:56.420Z,29.65
2018-09-17T11:37:28.594Z,30.48
2018-09-17T11:40:00.694Z,29.63
2018-09-17T11:42:32.781Z,29.18
2018-09-17T11:45:04.952Z,29.28
2018-09-17T11:47:37.196Z,29.67
2018-09-17T11:50:09.320Z,29.08
2018-09-17T11:52:41.391Z,28.52
2018-09-17T11:55:13.520Z,28.36
2018-09-17T11:57:45.588Z,29.35
2018-09-17T12:00:23.411Z,29.99
2018-09-17T12:03:01.032Z,30.06
2018-09-17T12:06:06.056Z,30.06
2018-09-17T12:08:38.168Z,29.39
2018-09-17T12:11:10.205Z,30.22
2018-09-17T12:13:42.275Z,30.58
2018-09-17T12:16:14.398Z,30.23
2018-09-17T12:18:46.509Z,30.61
2018-09-17T12:21:18.579Z,30.42
2018-09-17T12:23:50.706Z,29.99
2018-09-17T12:26:22.793Z,29.42
2018-09-17T12:28:54.924Z,29.76
2018-09-17T12:31:27.028Z,30.26
2018-09-17T12:33:59.286Z,30.17
2018-09-17T12:36:32.693Z,29.89
2018-09-17T12:39:06.964Z,30.15
2018-09-17T12:41:39.076Z,29.78
2018-09-17T12:44:11.191Z,29.88
2018-09-17T12:46:43.324Z,30.35
2018-09-17T12:49:15.383Z,30.52
2018-09-17T12:51:47.439Z,30.13
2018-09-17T12:54:19.955Z,30.41
2018-09-17T12:56:52.052Z,30.19
2018-09-17T12:59:24.149Z,31.30
2018-09-17T13:01:56.188Z,31.41
2018-09-17T13:04:28.380Z,31.30
2018-09-17T13:07:00.465Z,31.31
2018-09-17T13:09:33.478Z,31.53
2018-09-17T13:12:05.698Z,30.44
2018-09-17T13:14:37.963Z,30.75
2018-09-17T13:17:10.060Z,32.32
2018-09-17T13:19:42.175Z,34.64
2018-09-17T13:22:14.323Z,36.06
2018-09-17T13:24:46.930Z,35.63
2018-09-17T13:27:19.248Z,34.57
2018-09-17T13:29:51.382Z,32.82
2018-09-17T13:32:23.437Z,32.12
2018-09-17T13:34:55.536Z,32.98
2018-09-17T13:37:27.723Z,33.67
2018-09-17T13:40:00.829Z,34.42
2018-09-17T13:42:33.016Z,34.57
2018-09-17T13:45:05.157Z,35.61
2018-09-17T13:47:37.261Z,34.15
2018-09-17T13:50:09.333Z,31.91
2018-09-17T13:52:41.410Z,33.21
2018-09-17T13:55:13.451Z,33.46
2018-09-17T13:57:45.635Z,34.46
2018-09-17T14:00:17.685Z,34.21
2018-09-17T14:02:49.800Z,33.85
2018-09-17T14:05:22.020Z,33.43
2018-09-17T14:07:54.059Z,32.34
2018-09-17T14:10:26.162Z,33.03
2018-09-17T14:12:58.244Z,32.48
2018-09-17T14:15:30.311Z,30.97
2018-09-17T14:18:02.427Z,30.45
2018-09-17T14:20:34.483Z,30.74
2018-09-17T14:23:06.662Z,31.71
2018-09-17T14:25:38.723Z,31.24
2018-09-17T14:28:10.864Z,31.35
2018-09-17T14:30:42.899Z,31.70
2018-09-17T14:33:20.878Z,31.22
2018-09-17T14:35:52.980Z,31.67
2018-09-17T14:38:25.389Z,32.33
2018-09-17T14:40:57.474Z,32.59
2018-09-17T14:43:29.558Z,30.86
2018-09-17T14:46:01.657Z,31.15
2018-09-17T14:48:33.712Z,31.27
2018-09-17T14:51:05.871Z,31.17
2018-09-17T14:53:38.138Z,31.47
2018-09-17T14:56:10.137Z,30.27
2018-09-17T14:58:42.301Z,30.56
2018-09-17T15:01:14.372Z,30.53
2018-09-17T15:03:46.532Z,31.09
2018-09-17T15:06:18.588Z,32.63
2018-09-17T15:08:50.752Z,32.65
2018-09-17T15:11:22.815Z,32.71
2018-09-17T15:13:55.808Z,32.73
2018-09-17T15:16:27.978Z,31.59
2018-09-17T15:19:00.070Z,30.68
2018-09-17T15:21:32.164Z,29.72
2018-09-17T15:24:04.411Z,29.20
2018-09-17T15:26:36.451Z,29.36
2018-09-17T15:29:08.515Z,28.99
2018-09-17T15:31:40.569Z,29.04
2018-09-17T15:34:12.664Z,28.81
2018-09-17T15:36:44.950Z,28.56
2018-09-17T15:39:17.122Z,28.30
2018-09-17T15:41:49.092Z,27.85
2018-09-17T15:44:21.215Z,27.46
2018-09-17T15:46:53.324Z,26.94
2018-09-17T15:49:25.346Z,26.79
2018-09-17T15:51:57.483Z,26.71
2018-09-17T15:54:29.577Z,26.57
2018-09-17T15:57:01.603Z,26.66
2018-09-17T15:59:33.715Z,26.63
2018-09-17T16:02:07.813Z,26.64
2018-09-17T16:04:39.875Z,26.64
2018-09-17T16:07:12.019Z,26.26
2018-09-17T16:09:44.041Z,25.97
2018-09-17T16:12:16.126Z,25.90
2018-09-17T16:14:48.139Z,25.78
2018-09-17T16:17:20.194Z,25.66
2018-09-17T16:19:52.334Z,25.62
2018-09-17T16:22:24.577Z,25.48
2018-09-17T16:24:56.857Z,25.34
2018-09-17T16:27:28.962Z,25.30
2018-09-17T16:30:01.018Z,25.19
2018-09-17T16:32:33.086Z,25.18
2018-09-17T16:35:05.203Z,25.21
2018-09-17T16:37:37.429Z,25.08
2018-09-17T16:40:09.543Z,25.10
2018-09-17T16:42:41.937Z,24.89
2018-09-17T16:45:14.168Z,24.63
2018-09-17T16:47:46.312Z,24.45
2018-09-17T16:50:18.647Z,24.33
2018-09-17T16:52:50.714Z,24.19
2018-09-17T16:55:22.798Z,24.07
2018-09-17T16:57:54.874Z,23.89
2018-09-17T17:00:26.986Z,23.84
2018-09-17T17:02:59.329Z,23.72
2018-09-17T17:05:31.547Z,23.57
2018-09-17T17:08:03.636Z,23.49
2018-09-17T17:10:35.708Z,23.36
2018-09-17T17:13:07.785Z,23.31
2018-09-17T17:15:39.931Z,23.16
2018-09-17T17:18:12.020Z,23.05
2018-09-17T17:20:44.588Z,22.92
2018-09-17T17:23:16.826Z,22.80
2018-09-17T17:25:48.883Z,22.74
2018-09-17T17:28:21.070Z,22.68
2018-09-17T17:30:53.693Z,22.54
2018-09-17T17:33:25.786Z,22.39
2018-09-17T17:35:57.969Z,22.27
2018-09-17T17:38:30.068Z,22.20
2018-09-17T17:41:02.137Z,22.11
2018-09-17T17:43:34.271Z,22.00
2018-09-17T17:46:06.539Z,21.88
2018-09-17T17:48:38.487Z,21.81
2018-09-17T17:51:10.640Z,21.70
2018-09-17T17:53:42.712Z,21.61
2018-09-17T17:56:14.836Z,21.41
2018-09-17T17:58:46.997Z,21.30
2018-09-17T18:01:19.092Z,21.14
2018-09-17T18:03:51.173Z,21.09
2018-09-17T18:06:23.273Z,21.01
2018-09-17T18:08:55.334Z,21.01
2018-09-17T18:11:27.795Z,20.96
2018-09-17T18:14:00.671Z,20.88
2018-09-17T18:16:32.759Z,20.70
2018-09-17T18:19:04.848Z,20.59
2018-09-17T18:21:36.960Z,20.47
2018-09-17T18:24:09.012Z,20.34
2018-09-17T18:26:41.133Z,20.30
2018-09-17T18:29:14.238Z,20.32
2018-09-17T18:31:46.305Z,20.32
2018-09-17T18:34:18.339Z,20.35
2018-09-17T18:36:51.386Z,20.34
2018-09-17T18:39:24.106Z,20.21
2018-09-17T18:41:56.177Z,20.13
2018-09-17T18:44:28.270Z,20.09
2018-09-17T18:47:00.349Z,20.01
2018-09-17T18:49:32.390Z,19.94
2018-09-17T18:52:04.477Z,19.96
2018-09-17T18:54:36.965Z,19.88
2018-09-17T18:57:09.377Z,19.76
2018-09-17T18:59:41.497Z,19.63
2018-09-17T19:02:13.538Z,19.57
2018-09-17T19:04:45.635Z,19.53
2018-09-17T19:07:17.749Z,19.49
2018-09-17T19:09:51.878Z,19.43
2018-09-17T19:12:24.093Z,19.31
2018-09-17T19:15:01.962Z,19.27
2018-09-17T19:17:40.065Z,19.10
2018-09-17T19:20:12.421Z,18.97
2018-09-17T19:22:50.280Z,18.82
2018-09-17T19:25:22.310Z,18.81
2018-09-17T19:28:00.199Z,18.77
2018-09-17T19:30:32.163Z,18.71
2018-09-17T19:33:04.228Z,18.64
2018-09-17T19:35:36.260Z,18.60
2018-09-17T19:38:14.108Z,17.21
2018-09-17T19:40:46.320Z,18.41
2018-09-17T19:43:18.560Z,18.28
2018-09-17T19:45:56.346Z,18.23
2018-09-17T19:48:28.516Z,18.10
2018-09-17T19:51:06.506Z,18.15
2018-09-17T19:53:38.732Z,18.21
2018-09-17T19:56:10.837Z,18.20
2018-09-17T19:58:48.671Z,18.16
2018-09-17T20:01:20.739Z,18.14
2018-09-17T20:03:52.916Z,18.05
2018-09-17T20:06:26.150Z,17.97
2018-09-17T20:08:58.147Z,17.78
2018-09-17T20:11:30.204Z,17.61
2018-09-17T20:14:02.232Z,17.44
2018-09-17T20:16:34.333Z,17.35
2018-09-17T20:19:06.448Z,17.28
2018-09-17T20:21:38.483Z,17.17
2018-09-17T20:24:10.537Z,17.08
2018-09-17T20:26:42.603Z,16.91
2018-09-17T20:29:14.648Z,16.80
2018-09-17T20:31:46.715Z,16.68
2018-09-17T20:34:18.750Z,16.64
2018-09-17T20:36:50.866Z,16.67
2018-09-17T20:39:23.296Z,16.65
2018-09-17T20:41:55.359Z,16.54
2018-09-17T20:44:27.404Z,16.55
2018-09-17T20:46:59.433Z,16.56
2018-09-17T20:49:31.551Z,16.54
2018-09-17T20:52:03.603Z,16.74
2018-09-17T20:54:35.716Z,16.92
2018-09-17T20:57:07.757Z,16.87
2018-09-17T20:59:39.947Z,16.86
2018-09-17T21:02:11.977Z,16.74
2018-09-17T21:04:44.058Z,16.58
2018-09-17T21:07:16.142Z,16.41
2018-09-17T21:09:48.312Z,16.30
2018-09-17T21:12:20.459Z,16.15
2018-09-17T21:14:52.663Z,16.01
2018-09-17T21:17:24.679Z,15.91
2018-09-17T21:19:56.818Z,15.96
2018-09-17T21:22:28.835Z,15.94
2018-09-17T21:25:01.025Z,16.00
2018-09-17T21:27:33.128Z,15.97
2018-09-17T21:30:05.559Z,15.92
2018-09-17T21:32:37.663Z,15.82
2018-09-17T21:35:09.849Z,15.81
2018-09-17T21:37:41.842Z,15.78
2018-09-17T21:40:13.888Z,15.71
2018-09-17T21:42:45.948Z,15.62
2018-09-17T21:45:18.023Z,15.59
2018-09-17T21:47:50.046Z,15.59
2018-09-17T21:50:22.151Z,15.55
2018-09-17T21:52:54.771Z,15.58
2018-09-17T21:55:26.821Z,15.50
2018-09-17T21:58:00.065Z,15.49
2018-09-17T22:00:38.344Z,15.47
2018-09-17T22:03:10.446Z,15.40
2018-09-17T22:05:42.491Z,15.43
2018-09-17T22:08:14.643Z,15.34
2018-09-17T22:10:46.678Z,15.33
2018-09-17T22:13:18.691Z,15.21
2018-09-17T22:15:50.827Z,15.15
2018-09-17T22:18:22.855Z,15.06
2018-09-17T22:20:54.903Z,15.02
2018-09-17T22:23:26.947Z,14.94
2018-09-17T22:25:59.068Z,15.06
2018-09-17T22:28:31.102Z,15.14
2018-09-17T22:31:03.156Z,15.17
2018-09-17T22:33:35.376Z,15.16
2018-09-17T22:36:07.436Z,15.15
2018-09-17T22:38:39.537Z,15.12
2018-09-17T22:41:11.592Z,15.05
2018-09-17T22:43:43.687Z,14.98
2018-09-17T22:46:15.759Z,14.97
2018-09-17T22:48:47.820Z,14.88
2018-09-17T22:51:19.931Z,14.86
2018-09-17T22:53:51.996Z,14.80
2018-09-17T22:56:24.033Z,14.68
2018-09-17T22:58:56.124Z,14.67
2018-09-17T23:01:28.252Z,14.62
2018-09-17T23:04:00.293Z,14.49
2018-09-17T23:06:32.381Z,14.46
2018-09-17T23:09:07.279Z,14.39
2018-09-17T23:11:39.380Z,14.42
2018-09-17T23:14:11.422Z,14.37
2018-09-17T23:16:43.471Z,14.24
2018-09-17T23:19:15.484Z,14.23
2018-09-17T23:21:47.531Z,14.18
2018-09-17T23:24:19.557Z,14.24
2018-09-17T23:26:51.631Z,14.15
2018-09-17T23:29:23.696Z,14.12
2018-09-17T23:31:55.774Z,14.15
2018-09-17T23:34:27.800Z,14.12
2018-09-17T23:36:59.869Z,14.10
2018-09-17T23:39:31.895Z,14.09
2018-09-17T23:42:03.962Z,14.02
2018-09-17T23:44:36.020Z,14.03
2018-09-17T23:47:08.308Z,13.98
2018-09-17T23:49:40.348Z,13.91
2018-09-17T23:52:12.463Z,13.87
2018-09-17T23:54:44.483Z,13.82
2018-09-17T23:57:16.551Z,13.80
2018-09-17T23:59:48.576Z,13.85
